Share

Ashburn, GA

APRSWXNET Ashburn GA US (MAT400) Elev 452 ft | 31.71 °N, 83.65 °W | Change Station
Active Advisory: Areal Flood Watch

Current weather conditions updated 30 minutes ago

Light Rain
Light Rain
56 °F
Feels Like 56 °F
N
2
Wind Variable Wind from East
Gusts 9.0 mph
Sunrise 7:02 AM
Sunset 8:05 PM
Moon Waning Gibbous

Today is forecast to be Much Cooler than yesterday. Rain, heavy at times.

Pressure 30.24 in
Visibility 10.0 miles
Clouds Overcast 11000 ft
Dew Point 52 °F
Humidity 86%
Rainfall 0.00 in
Snow Depth Not available.
UV 0 out of 16
Pollen 9.60 out of 12
Air Quality Not available.
Flu Activity Sporadic
METAR KCKF 180755Z AUTO 05003KT 10SM -RA OVC110 16/13 A3024 RMK AO2 T01550129

More Conditions Fewer Conditions

Pressure 30.24 in
Visibility 10.0 miles
Clouds Overcast 11000 ft
Dew Point 52 °F
Humidity 86%
Rainfall 0.00 in
Snow Depth Not available.
UV 0 out of 16
Pollen 9.60 out of 12
Air Quality Not available.
Flu Activity Sporadic
METAR KCKF 180755Z AUTO 05003KT 10SM -RA OVC110 16/13 A3024 RMK AO2 T01550129

More Conditions Fewer Conditions

10-Day Forecast

Almanac

Astronomy

Apr. 18, 2014 Rise Set
Actual Time 7:02 AM EDT 8:05 PM EDT
Civil Twilight 6:37 AM EDT 8:30 PM EDT
Nautical Twilight 6:07 AM EDT 9:00 PM EDT
Astronomical Twilight 5:37 AM EDT 9:31 PM EDT
Moon 11:41 PM EDT 9:31 AM EDT
Length of Visible Light 13h 53m
Length of Day
13h 02m
Tomorrow will be 1m 50s longer.
Waning Gibbous, 89% of the Moon is Illuminated
Today
Waning Gibbous
Apr 22
Last Quarter
Apr 29
New
May 6
First Quarter
May 14
Full

Today's Extremes

State Highs State Lows

Community

  • SUNRISE THROUGH THE TREES.
    SUNRISE THROUGH THE TREES.
  • Dog Wood Blossoms
    Dog Wood Blossoms
  • Morning Light
    Morning Light
  • New Day
    New Day
  • Lake Michigan Sunrise
    Lake Michigan Sunrise

WunderPhotos

Upload Photos

1,702,279 photos uploaded!

WunderBlogs® & News

Nearby

Snow Depth

Station Depth Elevation
No new snow has been reported.

Coastal Water Temperatures

Place Temperature
No Stations Reporting

Earthquake Activity

City Distance Mag. Time & Date
No recent earthquake activity has been reported nearby.
Minimum magnitude displayed is 2.5.

Nearby Weather Stations

Station Location Temp. Dew Point Humidity Wind Precip. Elev Updated Type
APRSWXNET Ashburn GA, Ashburn, GA 56 °F 52 °F 86% East  at  2 mph 0.00 in / hr 452 ft 3:33 AM EDT MADIS
Worth County High School, Sylvester, GA 54.8 °F 52 °F 89% East  at  3.0 mph 0.06 in / hr 443 ft 4:00 AM EDT Normal
Forest Lakes, Tifton, GA 57.5 °F 52 °F 81% ENE  at  5.0 mph 0.00 in / hr 351 ft 4:00 AM EDT Normal

Show More Stations Show Fewer Stations

What do you think?

We're not finished. Please let us know what you like, what you don't like, and what you are still missing.